EZY929X EGPH-EGAA
Flight info
| Callsign | EZY929X |
|---|---|
| Flight time | 0h 28m |
| Altitude | 24000 |
| Route | GOSAM P600 BLACA DCT BELZU |
| Aircraft | A20N/M-SDE2E3FGHIJ1RWXY/LB1 |
Departure
| Time | 2026-04-24 06:20 |
|---|---|
| Airport | Edinburgh Airport (EGPH) |
Arrival
| Time | 2026-04-24 06:49 |
|---|---|
| Airport | Belfast International Airport (EGAA) |
| Time | Latitude | Longitude | Altitude | Speed | Heading |
|---|---|---|---|---|---|
| 2026-04-24 05:47 | 55.94770 | -3.35551 | 141 ft | 0 kts | 209° |
| 2026-04-24 06:01 | 55.94778 | -3.35543 | 141 ft | 2 kts | 211° |
| 2026-04-24 06:01 | 55.94791 | -3.35530 | 141 ft | 2 kts | 208° |
| 2026-04-24 06:02 | 55.94804 | -3.35517 | 141 ft | 2 kts | 212° |
| 2026-04-24 06:02 | 55.94813 | -3.35496 | 141 ft | 2 kts | 258° |
| 2026-04-24 06:02 | 55.94812 | -3.35470 | 141 ft | 1 kts | 293° |
| 2026-04-24 06:02 | 55.94811 | -3.35465 | 141 ft | 1 kts | 298° |
| 2026-04-24 06:03 | 55.94822 | -3.35505 | 141 ft | 2 kts | 299° |
| 2026-04-24 06:03 | 55.94825 | -3.35514 | 141 ft | 0 kts | 299° |
| 2026-04-24 06:04 | 55.94827 | -3.35520 | 141 ft | 2 kts | 299° |
| 2026-04-24 06:05 | 55.94846 | -3.35577 | 141 ft | 8 kts | 300° |
| 2026-04-24 06:05 | 55.94876 | -3.35674 | 141 ft | 8 kts | 299° |
| 2026-04-24 06:05 | 55.94905 | -3.35768 | 141 ft | 8 kts | 299° |
| 2026-04-24 06:05 | 55.94940 | -3.35846 | 141 ft | 7 kts | 328° |
| 2026-04-24 06:06 | 55.94987 | -3.35854 | 141 ft | 7 kts | 19° |
| 2026-04-24 06:06 | 55.95047 | -3.35858 | 141 ft | 10 kts | 322° |
| 2026-04-24 06:06 | 55.95089 | -3.35984 | 141 ft | 12 kts | 294° |
| 2026-04-24 06:06 | 55.95116 | -3.36122 | 141 ft | 10 kts | 289° |
| 2026-04-24 06:07 | 55.95134 | -3.36235 | 141 ft | 8 kts | 275° |
| 2026-04-24 06:07 | 55.95110 | -3.36350 | 141 ft | 13 kts | 240° |
| 2026-04-24 06:07 | 55.95050 | -3.36529 | 141 ft | 19 kts | 238° |
| 2026-04-24 06:07 | 55.94981 | -3.36730 | 141 ft | 18 kts | 239° |
| 2026-04-24 06:08 | 55.94924 | -3.36901 | 141 ft | 15 kts | 239° |
| 2026-04-24 06:08 | 55.94871 | -3.37057 | 141 ft | 14 kts | 239° |
| 2026-04-24 06:08 | 55.94818 | -3.37213 | 141 ft | 14 kts | 239° |
| 2026-04-24 06:08 | 55.94763 | -3.37375 | 141 ft | 15 kts | 239° |
| 2026-04-24 06:09 | 55.94710 | -3.37532 | 141 ft | 13 kts | 239° |
| 2026-04-24 06:09 | 55.94659 | -3.37684 | 141 ft | 14 kts | 239° |
| 2026-04-24 06:09 | 55.94606 | -3.37839 | 141 ft | 14 kts | 239° |
| 2026-04-24 06:09 | 55.94552 | -3.38000 | 141 ft | 15 kts | 239° |
| 2026-04-24 06:10 | 55.94495 | -3.38166 | 141 ft | 15 kts | 238° |
| 2026-04-24 06:10 | 55.94439 | -3.38333 | 141 ft | 16 kts | 239° |
| 2026-04-24 06:10 | 55.94381 | -3.38504 | 141 ft | 15 kts | 239° |
| 2026-04-24 06:11 | 55.94314 | -3.38704 | 141 ft | 3 kts | 239° |
| 2026-04-24 06:11 | 55.94309 | -3.38717 | 141 ft | 1 kts | 239° |
| 2026-04-24 06:11 | 55.94305 | -3.38730 | 141 ft | 0 kts | 239° |
| 2026-04-24 06:11 | 55.94300 | -3.38742 | 141 ft | 1 kts | 239° |
| 2026-04-24 06:12 | 55.94294 | -3.38762 | 141 ft | 0 kts | 239° |
| 2026-04-24 06:18 | 55.94284 | -3.38789 | 141 ft | 6 kts | 239° |
| 2026-04-24 06:18 | 55.94279 | -3.38831 | 141 ft | 0 kts | 311° |
| 2026-04-24 06:18 | 55.94286 | -3.38847 | 141 ft | 2 kts | 311° |
| 2026-04-24 06:18 | 55.94303 | -3.38874 | 141 ft | 3 kts | 323° |
| 2026-04-24 06:19 | 55.94330 | -3.38905 | 141 ft | 5 kts | 329° |
| 2026-04-24 06:19 | 55.94366 | -3.38944 | 141 ft | 6 kts | 330° |
| 2026-04-24 06:19 | 55.94400 | -3.38967 | 141 ft | 5 kts | 1° |
| 2026-04-24 06:19 | 55.94430 | -3.38925 | 141 ft | 5 kts | 58° |
| 2026-04-24 06:20 | 55.94472 | -3.38804 | 141 ft | 32 kts | 59° |
| 2026-04-24 06:20 | 55.94739 | -3.38001 | 141 ft | 113 kts | 58° |
| 2026-04-24 06:20 | 55.95255 | -3.36494 | 302 ft | 159 kts | 58° |
| 2026-04-24 06:20 | 55.95820 | -3.34837 | 1061 ft | 158 kts | 54° |
| 2026-04-24 06:21 | 55.96523 | -3.33407 | 1880 ft | 156 kts | 43° |
| 2026-04-24 06:21 | 55.97339 | -3.32061 | 2445 ft | 168 kts | 40° |
| 2026-04-24 06:21 | 55.98241 | -3.30632 | 3009 ft | 181 kts | 40° |
| 2026-04-24 06:21 | 55.99237 | -3.29076 | 3480 ft | 202 kts | 35° |
| 2026-04-24 06:22 | 56.00567 | -3.28093 | 4015 ft | 220 kts | 2° |
| 2026-04-24 06:22 | 56.02055 | -3.28706 | 4680 ft | 231 kts | 326° |
| 2026-04-24 06:22 | 56.03075 | -3.30813 | 5779 ft | 226 kts | 293° |
| 2026-04-24 06:22 | 56.03297 | -3.33528 | 6775 ft | 227 kts | 265° |
| 2026-04-24 06:23 | 56.02983 | -3.36262 | 7638 ft | 234 kts | 257° |
| 2026-04-24 06:23 | 56.02520 | -3.39169 | 8247 ft | 252 kts | 256° |
| 2026-04-24 06:23 | 56.02027 | -3.42254 | 8964 ft | 265 kts | 256° |
| 2026-04-24 06:23 | 56.01541 | -3.45423 | 9936 ft | 267 kts | 256° |
| 2026-04-24 06:24 | 56.01074 | -3.48627 | 10903 ft | 269 kts | 256° |
| 2026-04-24 06:24 | 56.00607 | -3.51890 | 11507 ft | 284 kts | 256° |
| 2026-04-24 06:24 | 56.00102 | -3.55432 | 11986 ft | 302 kts | 256° |
| 2026-04-24 06:24 | 55.99565 | -3.59184 | 12426 ft | 320 kts | 256° |
| 2026-04-24 06:25 | 55.99000 | -3.63135 | 12873 ft | 336 kts | 256° |
| 2026-04-24 06:25 | 55.98414 | -3.67235 | 13633 ft | 341 kts | 255° |
| 2026-04-24 06:25 | 55.97829 | -3.71324 | 14504 ft | 342 kts | 255° |
| 2026-04-24 06:25 | 55.97241 | -3.75424 | 15327 ft | 344 kts | 255° |
| 2026-04-24 06:26 | 55.96646 | -3.79560 | 16122 ft | 346 kts | 255° |
| 2026-04-24 06:26 | 55.96046 | -3.83707 | 16894 ft | 348 kts | 255° |
| 2026-04-24 06:26 | 55.95432 | -3.87931 | 17658 ft | 350 kts | 255° |
| 2026-04-24 06:26 | 55.94823 | -3.92115 | 18394 ft | 352 kts | 255° |
| 2026-04-24 06:27 | 55.94210 | -3.96339 | 19114 ft | 353 kts | 255° |
| 2026-04-24 06:27 | 55.93678 | -4.00677 | 19826 ft | 355 kts | 258° |
| 2026-04-24 06:27 | 55.92970 | -4.04833 | 20470 ft | 357 kts | 245° |
| 2026-04-24 06:27 | 55.91533 | -4.08497 | 21123 ft | 362 kts | 228° |
| 2026-04-24 06:28 | 55.89527 | -4.11155 | 21738 ft | 371 kts | 212° |
| 2026-04-24 06:28 | 55.87055 | -4.12797 | 22357 ft | 380 kts | 203° |
| 2026-04-24 06:28 | 55.84596 | -4.14355 | 22934 ft | 378 kts | 208° |
| 2026-04-24 06:28 | 55.82235 | -4.16424 | 23483 ft | 377 kts | 214° |
| 2026-04-24 06:29 | 55.80003 | -4.18802 | 24026 ft | 377 kts | 217° |
| 2026-04-24 06:29 | 55.77812 | -4.21357 | 24355 ft | 378 kts | 219° |
| 2026-04-24 06:29 | 55.75658 | -4.24014 | 24402 ft | 377 kts | 220° |
| 2026-04-24 06:29 | 55.73539 | -4.26661 | 24406 ft | 376 kts | 220° |
| 2026-04-24 06:30 | 55.71399 | -4.29331 | 24408 ft | 376 kts | 220° |
| 2026-04-24 06:30 | 55.69260 | -4.31991 | 24408 ft | 376 kts | 219° |
| 2026-04-24 06:30 | 55.67113 | -4.34654 | 24408 ft | 376 kts | 219° |
| 2026-04-24 06:30 | 55.64979 | -4.37295 | 24408 ft | 376 kts | 219° |
| 2026-04-24 06:31 | 55.62850 | -4.39924 | 24406 ft | 377 kts | 219° |
| 2026-04-24 06:31 | 55.60681 | -4.42598 | 24402 ft | 377 kts | 219° |
| 2026-04-24 06:31 | 55.58532 | -4.45244 | 24399 ft | 377 kts | 219° |
| 2026-04-24 06:31 | 55.56380 | -4.47888 | 24395 ft | 377 kts | 219° |
| 2026-04-24 06:32 | 55.54248 | -4.50506 | 24392 ft | 377 kts | 219° |
| 2026-04-24 06:32 | 55.52090 | -4.53151 | 24390 ft | 377 kts | 219° |
| 2026-04-24 06:32 | 55.49936 | -4.55784 | 24387 ft | 377 kts | 219° |
| 2026-04-24 06:32 | 55.47774 | -4.58425 | 24386 ft | 378 kts | 220° |
| 2026-04-24 06:33 | 55.45610 | -4.61066 | 24385 ft | 378 kts | 219° |
| 2026-04-24 06:33 | 55.43469 | -4.63678 | 24385 ft | 378 kts | 219° |
| 2026-04-24 06:33 | 55.41291 | -4.66324 | 24386 ft | 378 kts | 219° |
| 2026-04-24 06:33 | 55.39104 | -4.68980 | 24385 ft | 378 kts | 219° |
| 2026-04-24 06:34 | 55.36923 | -4.71629 | 24385 ft | 378 kts | 219° |
| 2026-04-24 06:34 | 55.34754 | -4.74255 | 24384 ft | 378 kts | 219° |
| 2026-04-24 06:34 | 55.32556 | -4.76806 | 24385 ft | 379 kts | 217° |
| 2026-04-24 06:34 | 55.30272 | -4.79191 | 24384 ft | 381 kts | 214° |
| 2026-04-24 06:35 | 55.27942 | -4.81363 | 24384 ft | 383 kts | 212° |
| 2026-04-24 06:35 | 55.25558 | -4.83451 | 24385 ft | 382 kts | 212° |
| 2026-04-24 06:35 | 55.23183 | -4.85554 | 24385 ft | 382 kts | 212° |
| 2026-04-24 06:35 | 55.20805 | -4.87656 | 24385 ft | 382 kts | 211° |
| 2026-04-24 06:36 | 55.18457 | -4.89723 | 24385 ft | 382 kts | 211° |
| 2026-04-24 06:36 | 55.16067 | -4.91819 | 24384 ft | 382 kts | 211° |
| 2026-04-24 06:36 | 55.13699 | -4.93889 | 24384 ft | 382 kts | 211° |
| 2026-04-24 06:36 | 55.11333 | -4.95956 | 24385 ft | 382 kts | 210° |
| 2026-04-24 06:37 | 55.08955 | -4.98031 | 24384 ft | 382 kts | 210° |
| 2026-04-24 06:37 | 55.06593 | -5.00091 | 24384 ft | 382 kts | 210° |
| 2026-04-24 06:37 | 55.04233 | -5.02144 | 24295 ft | 377 kts | 210° |
| 2026-04-24 06:37 | 55.01893 | -5.04174 | 23596 ft | 378 kts | 210° |
| 2026-04-24 06:38 | 54.99514 | -5.06237 | 22481 ft | 385 kts | 210° |
| 2026-04-24 06:38 | 54.97142 | -5.08289 | 21659 ft | 383 kts | 210° |
| 2026-04-24 06:38 | 54.94793 | -5.10311 | 21341 ft | 369 kts | 210° |
| 2026-04-24 06:38 | 54.92536 | -5.12253 | 20995 ft | 358 kts | 210° |
| 2026-04-24 06:39 | 54.90394 | -5.14340 | 20577 ft | 352 kts | 218° |
| 2026-04-24 06:39 | 54.88526 | -5.17181 | 20072 ft | 346 kts | 229° |
| 2026-04-24 06:39 | 54.87096 | -5.20502 | 19477 ft | 344 kts | 239° |
| 2026-04-24 06:39 | 54.85949 | -5.24240 | 18745 ft | 345 kts | 242° |
| 2026-04-24 06:40 | 54.84904 | -5.27832 | 18016 ft | 346 kts | 242° |
| 2026-04-24 06:40 | 54.83822 | -5.31569 | 17324 ft | 345 kts | 243° |
| 2026-04-24 06:40 | 54.82742 | -5.35300 | 16668 ft | 343 kts | 243° |
| 2026-04-24 06:40 | 54.81681 | -5.38955 | 16041 ft | 341 kts | 243° |
| 2026-04-24 06:41 | 54.80620 | -5.42610 | 15421 ft | 340 kts | 243° |
| 2026-04-24 06:41 | 54.79798 | -5.46406 | 14777 ft | 340 kts | 258° |
| 2026-04-24 06:41 | 54.79609 | -5.50508 | 14152 ft | 340 kts | 266° |
| 2026-04-24 06:41 | 54.79599 | -5.54580 | 13529 ft | 335 kts | 268° |
| 2026-04-24 06:42 | 54.79615 | -5.58481 | 12871 ft | 315 kts | 268° |
| 2026-04-24 06:42 | 54.79631 | -5.62170 | 12121 ft | 302 kts | 268° |
| 2026-04-24 06:42 | 54.79637 | -5.65683 | 11379 ft | 291 kts | 268° |
| 2026-04-24 06:42 | 54.79626 | -5.69027 | 10650 ft | 283 kts | 268° |
| 2026-04-24 06:43 | 54.79639 | -5.72382 | 9890 ft | 276 kts | 275° |
| 2026-04-24 06:43 | 54.79834 | -5.75636 | 9127 ft | 270 kts | 265° |
| 2026-04-24 06:43 | 54.79287 | -5.78651 | 8375 ft | 266 kts | 239° |
| 2026-04-24 06:43 | 54.78132 | -5.81116 | 7632 ft | 264 kts | 229° |
| 2026-04-24 06:44 | 54.76868 | -5.83375 | 6874 ft | 262 kts | 227° |
| 2026-04-24 06:44 | 54.75623 | -5.85666 | 5892 ft | 268 kts | 233° |
| 2026-04-24 06:44 | 54.74594 | -5.88375 | 4885 ft | 271 kts | 244° |
| 2026-04-24 06:44 | 54.73841 | -5.91306 | 4075 ft | 267 kts | 249° |
| 2026-04-24 06:45 | 54.73147 | -5.94194 | 3486 ft | 257 kts | 248° |
| 2026-04-24 06:45 | 54.72439 | -5.96924 | 3097 ft | 241 kts | 246° |
| 2026-04-24 06:45 | 54.71740 | -5.99493 | 2775 ft | 227 kts | 246° |
| 2026-04-24 06:45 | 54.71082 | -6.01882 | 2475 ft | 211 kts | 246° |
| 2026-04-24 06:46 | 54.70489 | -6.04046 | 2193 ft | 191 kts | 246° |
| 2026-04-24 06:46 | 54.69936 | -6.06081 | 1946 ft | 184 kts | 246° |
| 2026-04-24 06:46 | 54.69405 | -6.08042 | 1795 ft | 173 kts | 246° |
| 2026-04-24 06:46 | 54.68911 | -6.09865 | 1566 ft | 162 kts | 246° |
| 2026-04-24 06:47 | 54.68450 | -6.11566 | 1332 ft | 148 kts | 246° |
| 2026-04-24 06:47 | 54.68032 | -6.13111 | 1101 ft | 135 kts | 246° |
| 2026-04-24 06:47 | 54.67650 | -6.14527 | 911 ft | 127 kts | 246° |
| 2026-04-24 06:47 | 54.67277 | -6.15909 | 764 ft | 127 kts | 245° |
| 2026-04-24 06:48 | 54.66900 | -6.17308 | 602 ft | 126 kts | 245° |
| 2026-04-24 06:48 | 54.66529 | -6.18681 | 436 ft | 126 kts | 245° |
| 2026-04-24 06:48 | 54.66160 | -6.20051 | 282 ft | 121 kts | 245° |
| 2026-04-24 06:48 | 54.65857 | -6.21179 | 277 ft | 81 kts | 245° |
| 2026-04-24 06:49 | 54.65686 | -6.21811 | 277 ft | 40 kts | 245° |
| 2026-04-24 06:49 | 54.65583 | -6.22195 | 277 ft | 30 kts | 245° |
| 2026-04-24 06:49 | 54.65519 | -6.22431 | 277 ft | 11 kts | 245° |
| 2026-04-24 06:49 | 54.65487 | -6.22555 | 277 ft | 9 kts | 250° |
| 2026-04-24 06:50 | 54.65493 | -6.22656 | 277 ft | 6 kts | 294° |
| 2026-04-24 06:50 | 54.65528 | -6.22714 | 277 ft | 7 kts | 336° |
| 2026-04-24 06:50 | 54.65584 | -6.22744 | 277 ft | 9 kts | 343° |
| 2026-04-24 06:50 | 54.65621 | -6.22762 | 277 ft | 3 kts | 343° |
| 2026-04-24 06:51 | 54.65647 | -6.22776 | 277 ft | 4 kts | 343° |
| 2026-04-24 06:51 | 54.65682 | -6.22791 | 277 ft | 5 kts | 354° |
| 2026-04-24 06:51 | 54.65725 | -6.22768 | 277 ft | 7 kts | 43° |
| 2026-04-24 06:51 | 54.65746 | -6.22639 | 277 ft | 18 kts | 87° |
| 2026-04-24 06:52 | 54.65759 | -6.22414 | 277 ft | 18 kts | 84° |
| 2026-04-24 06:52 | 54.65774 | -6.22209 | 277 ft | 10 kts | 78° |
| 2026-04-24 06:52 | 54.65797 | -6.22080 | 277 ft | 11 kts | 66° |
| 2026-04-24 06:52 | 54.65829 | -6.21962 | 277 ft | 9 kts | 65° |
| 2026-04-24 06:53 | 54.65858 | -6.21850 | 277 ft | 10 kts | 65° |
| 2026-04-24 06:53 | 54.65885 | -6.21751 | 277 ft | 9 kts | 65° |
| 2026-04-24 06:53 | 54.65914 | -6.21645 | 277 ft | 7 kts | 64° |
| 2026-04-24 06:53 | 54.65934 | -6.21574 | 277 ft | 6 kts | 64° |
| 2026-04-24 06:54 | 54.65957 | -6.21493 | 277 ft | 8 kts | 65° |
| 2026-04-24 06:54 | 54.65982 | -6.21395 | 277 ft | 9 kts | 65° |
| 2026-04-24 06:54 | 54.66011 | -6.21286 | 277 ft | 10 kts | 66° |
| 2026-04-24 06:54 | 54.66067 | -6.21217 | 277 ft | 11 kts | 345° |
| 2026-04-24 06:55 | 54.66132 | -6.21264 | 277 ft | 10 kts | 335° |
| 2026-04-24 06:55 | 54.66153 | -6.21339 | 277 ft | 5 kts | 244° |
| 2026-04-24 06:55 | 54.66145 | -6.21375 | 277 ft | 2 kts | 247° |
| 2026-04-24 06:55 | 54.66144 | -6.21379 | 277 ft | 0 kts | 246° |